Time;durP1;ratioP1;P1;durP2;ratioP2;P2;SDS_P1;SDS_P2;PMS_P1;PMS_P2;Temp;Humidity;BMP_temperature;BMP_pressure;BME280_temperature;BME280_humidity;BME280_pressure;Samples;Min_cycle;Max_cycle;Signal;HPM_P1;HPM_P2
2023/05/12 00:02:05;;;;;;;3.00;2.80;;;18.90;58.30;;;;;;5072607;28;20414;-49
2023/05/12 00:04:31;;;;;;;3.33;3.13;;;19.00;58.50;;;;;;5069950;28;20204;-50
2023/05/12 00:06:57;;;;;;;2.90;2.60;;;19.00;58.20;;;;;;5060996;28;20198;-49
2023/05/12 00:09:22;;;;;;;3.53;3.30;;;19.10;57.70;;;;;;5068423;28;20192;-52
2023/05/12 00:11:48;;;;;;;2.77;2.63;;;19.20;57.60;;;;;;5059870;28;20196;-51
2023/05/12 00:14:14;;;;;;;3.63;3.33;;;19.20;57.70;;;;;;5056036;28;20262;-50
2023/05/12 00:16:40;;;;;;;3.30;3.10;;;19.20;57.40;;;;;;5064388;28;20258;-50
2023/05/12 00:19:06;;;;;;;2.90;2.70;;;19.20;57.20;;;;;;5060734;28;20501;-51
2023/05/12 00:21:31;;;;;;;3.40;3.10;;;19.10;56.90;;;;;;5064063;28;20206;-49
2023/05/12 00:23:57;;;;;;;3.10;2.83;;;19.10;57.00;;;;;;5065025;28;20204;-49
2023/05/12 00:26:23;;;;;;;3.20;2.77;;;19.00;57.10;;;;;;5059003;28;20279;-50
2023/05/12 00:28:48;;;;;;;2.90;2.70;;;19.00;57.00;;;;;;5057868;28;20722;-50
2023/05/12 00:31:14;;;;;;;5.40;3.50;;;19.00;57.20;;;;;;5063705;28;20203;-52
2023/05/12 00:33:40;;;;;;;4.33;3.90;;;19.00;56.90;;;;;;5058772;28;20200;-50
2023/05/12 00:36:06;;;;;;;5.07;4.57;;;18.90;56.90;;;;;;5063863;28;20229;-49
2023/05/12 00:38:33;;;;;;;4.10;3.80;;;18.80;57.20;;;;;;5059835;28;20188;-50
2023/05/12 00:41:00;;;;;;;5.37;4.90;;;18.80;57.50;;;;;;5062847;28;20919;-49
2023/05/12 00:43:25;;;;;;;8.77;4.63;;;18.80;57.70;;;;;;5068888;28;20829;-50
2023/05/12 00:45:51;;;;;;;8.90;4.80;;;18.80;57.70;;;;;;5066788;28;20444;-51
2023/05/12 00:48:17;;;;;;;7.87;5.70;;;18.80;57.90;;;;;;5066535;28;20211;-50
2023/05/12 00:50:43;;;;;;;5.27;3.63;;;18.80;57.90;;;;;;5061885;28;20522;-49
2023/05/12 00:53:10;;;;;;;5.17;4.67;;;18.80;58.10;;;;;;5071883;28;20446;-49
2023/05/12 00:55:36;;;;;;;4.73;4.37;;;18.90;58.30;;;;;;5070362;28;20613;-50
2023/05/12 00:58:02;;;;;;;6.77;5.97;;;19.00;58.00;;;;;;5069537;28;20481;-51
2023/05/12 01:00:28;;;;;;;5.80;5.40;;;19.00;57.70;;;;;;5069084;28;20538;-49
2023/05/12 01:02:57;;;;;;;6.50;6.00;;;19.00;57.40;;;;;;5063887;28;20444;-49
2023/05/12 01:05:43;;;;;;;6.43;5.90;;;18.80;57.40;;;;;;5067733;28;20248;-49
2023/05/12 01:08:10;;;;;;;7.50;6.00;;;18.70;57.60;;;;;;5069247;28;20541;-53
2023/05/12 01:10:36;;;;;;;7.53;6.83;;;18.60;57.70;;;;;;5062468;28;20866;-49
2023/05/12 01:13:01;;;;;;;7.40;6.70;;;18.50;58.00;;;;;;5069934;28;20513;-49
2023/05/12 01:15:30;;;;;;;7.20;6.50;;;18.50;58.40;;;;;;5071092;28;20218;-49
2023/05/12 01:18:00;;;;;;;7.70;7.00;;;18.50;59.10;;;;;;5069809;28;20431;-48
2023/05/12 01:20:27;;;;;;;8.30;7.60;;;18.50;59.00;;;;;;5070302;28;20875;-49
2023/05/12 01:22:54;;;;;;;8.87;8.07;;;18.50;58.80;;;;;;5059344;28;20454;-49
2023/05/12 01:25:22;;;;;;;8.23;7.27;;;18.50;58.60;;;;;;5060205;28;20453;-49
2023/05/12 01:27:49;;;;;;;9.30;8.07;;;18.50;58.90;;;;;;5060824;28;20434;-49
2023/05/12 01:30:16;;;;;;;10.20;9.30;;;18.50;59.10;;;;;;5056786;28;20447;-49
2023/05/12 01:32:42;;;;;;;9.90;9.00;;;18.50;59.20;;;;;;5042696;28;20801;-49
2023/05/12 01:35:08;;;;;;;9.67;8.57;;;18.50;59.60;;;;;;5060121;28;20461;-50
2023/05/12 01:37:34;;;;;;;8.80;8.00;;;18.50;59.50;;;;;;5057512;28;20929;-49
2023/05/12 01:40:00;;;;;;;9.53;8.73;;;18.50;59.70;;;;;;5064689;28;20270;-49
2023/05/12 01:42:25;;;;;;;10.30;8.80;;;18.50;59.50;;;;;;5062651;28;20188;-51
2023/05/12 01:44:51;;;;;;;9.43;8.53;;;18.40;59.40;;;;;;5060123;28;20192;-50
2023/05/12 01:47:17;;;;;;;8.43;7.73;;;18.40;59.70;;;;;;5060632;28;20609;-48
2023/05/12 01:49:44;;;;;;;9.30;8.40;;;18.40;59.70;;;;;;5060655;28;20241;-49
2023/05/12 01:52:10;;;;;;;11.83;9.17;;;18.40;59.80;;;;;;5063984;28;20544;-50
2023/05/12 01:54:35;;;;;;;9.47;8.40;;;18.50;59.80;;;;;;5056228;28;21033;-50
2023/05/12 01:57:01;;;;;;;11.10;8.70;;;18.50;59.70;;;;;;5058349;28;20240;-50
2023/05/12 01:59:26;;;;;;;11.10;8.80;;;18.60;59.70;;;;;;5061907;28;20310;-52
2023/05/12 02:01:52;;;;;;;9.77;8.87;;;18.70;59.70;;;;;;5069274;28;20192;-51
2023/05/12 02:04:17;;;;;;;9.50;8.60;;;18.70;59.30;;;;;;5063391;28;20284;-49
2023/05/12 02:06:43;;;;;;;9.90;8.93;;;18.70;59.00;;;;;;5062348;28;20268;-50
2023/05/12 02:09:09;;;;;;;10.93;9.93;;;18.70;58.90;;;;;;5058159;28;20196;-52
2023/05/12 02:11:35;;;;;;;9.20;8.20;;;18.70;58.90;;;;;;5067018;28;20651;-48
2023/05/12 02:14:01;;;;;;;9.80;8.63;;;18.60;59.00;;;;;;5067580;28;20709;-50
2023/05/12 02:16:26;;;;;;;8.67;7.87;;;18.60;59.10;;;;;;5065608;28;20443;-50
2023/05/12 02:18:52;;;;;;;9.20;8.37;;;18.70;59.20;;;;;;5060166;28;20212;-50
2023/05/12 02:21:17;;;;;;;11.13;9.53;;;18.70;59.20;;;;;;5063946;28;20202;-53
2023/05/12 02:23:43;;;;;;;10.40;9.47;;;18.80;59.20;;;;;;5066112;28;20622;-49
2023/05/12 02:26:08;;;;;;;9.37;8.50;;;18.80;59.00;;;;;;5060982;28;20299;-50
2023/05/12 02:28:35;;;;;;;8.93;8.20;;;18.80;58.60;;;;;;5070019;28;20188;-50
2023/05/12 02:31:00;;;;;;;9.37;8.57;;;18.60;58.60;;;;;;5064943;28;20605;-49
2023/05/12 02:33:26;;;;;;;10.13;9.23;;;18.50;59.00;;;;;;5064905;28;20522;-49
2023/05/12 02:35:52;;;;;;;9.83;8.90;;;18.40;59.20;;;;;;5067041;28;20191;-49
2023/05/12 02:38:17;;;;;;;9.77;8.87;;;18.30;59.50;;;;;;5064962;28;20192;-50
2023/05/12 02:40:43;;;;;;;10.13;9.10;;;18.20;59.80;;;;;;5067221;28;20219;-49
2023/05/12 02:43:08;;;;;;;10.97;9.40;;;18.10;60.10;;;;;;5063172;28;20183;-49
2023/05/12 02:45:34;;;;;;;9.70;8.83;;;18.00;60.50;;;;;;5066168;28;20192;-50
2023/05/12 02:48:00;;;;;;;9.93;9.03;;;18.00;60.90;;;;;;5067634;28;20195;-49
2023/05/12 02:50:25;;;;;;;10.00;8.90;;;17.90;61.00;;;;;;5064658;28;20445;-53
2023/05/12 02:52:51;;;;;;;10.33;9.23;;;17.80;61.10;;;;;;5069749;28;20192;-49
2023/05/12 02:55:17;;;;;;;10.50;9.50;;;17.80;61.30;;;;;;5066112;28;20288;-49
2023/05/12 02:57:43;;;;;;;8.53;7.77;;;17.80;61.50;;;;;;5068854;28;20194;-49
2023/05/12 03:00:09;;;;;;;8.80;8.00;;;17.70;61.80;;;;;;5063464;28;20237;-50
2023/05/12 03:02:37;;;;;;;9.13;8.33;;;17.70;62.20;;;;;;5065383;28;20193;-49
2023/05/12 03:05:03;;;;;;;9.33;8.43;;;17.60;62.20;;;;;;5068820;28;20470;-49
2023/05/12 03:07:29;;;;;;;11.03;8.03;;;17.60;62.30;;;;;;5068741;28;20442;-49
2023/05/12 03:09:54;;;;;;;9.77;8.90;;;17.60;62.70;;;;;;5067002;28;20434;-49
2023/05/12 03:12:20;;;;;;;9.30;8.40;;;17.50;62.70;;;;;;5062617;28;20278;-49
2023/05/12 03:14:46;;;;;;;9.97;8.97;;;17.60;63.00;;;;;;5061339;28;20594;-48
2023/05/12 03:17:12;;;;;;;10.13;9.27;;;17.50;63.10;;;;;;5066652;28;20200;-50
2023/05/12 03:19:38;;;;;;;8.80;8.00;;;17.50;63.40;;;;;;5066148;28;20547;-51
2023/05/12 03:22:06;;;;;;;9.90;8.90;;;17.50;63.30;;;;;;5068344;28;20268;-53
2023/05/12 03:24:31;;;;;;;8.57;7.77;;;17.50;63.60;;;;;;5068463;28;20495;-51
2023/05/12 03:26:57;;;;;;;10.07;9.23;;;17.50;63.50;;;;;;5061514;28;20435;-50
2023/05/12 03:29:23;;;;;;;8.87;8.17;;;17.50;63.50;;;;;;5062597;28;20192;-54
2023/05/12 03:31:49;;;;;;;8.80;8.03;;;17.50;63.40;;;;;;5047878;28;20647;-51
2023/05/12 03:34:14;;;;;;;8.50;7.80;;;17.50;63.30;;;;;;5069953;28;20188;-51
2023/05/12 03:36:40;;;;;;;8.20;7.50;;;17.50;63.30;;;;;;5068789;28;20341;-53
2023/05/12 03:39:08;;;;;;;8.80;8.00;;;17.60;63.30;;;;;;5074767;28;20219;-51
2023/05/12 03:41:37;;;;;;;7.90;7.20;;;17.60;63.20;;;;;;5063940;28;20605;-52
2023/05/12 03:44:04;;;;;;;8.70;7.90;;;17.60;63.40;;;;;;5060699;28;20465;-55
2023/05/12 03:46:30;;;;;;;8.80;7.90;;;17.50;63.60;;;;;;5062606;28;20450;-54
2023/05/12 03:48:56;;;;;;;9.00;8.10;;;17.50;64.00;;;;;;5066088;28;20445;-50
2023/05/12 03:51:21;;;;;;;8.50;7.70;;;17.50;64.00;;;;;;5062592;28;20543;-50
2023/05/12 03:53:47;;;;;;;9.07;8.20;;;17.50;64.00;;;;;;5062768;28;20616;-49
2023/05/12 03:56:14;;;;;;;8.30;7.60;;;17.50;64.00;;;;;;5066328;28;20678;-50
2023/05/12 03:58:40;;;;;;;8.00;7.30;;;17.50;64.10;;;;;;5060461;28;20200;-50
2023/05/12 04:01:05;;;;;;;8.60;7.47;;;17.50;64.20;;;;;;5072607;28;20772;-50
2023/05/12 04:03:31;;;;;;;10.83;7.73;;;17.50;64.20;;;;;;5062583;28;20200;-50
2023/05/12 04:06:01;;;;;;;8.63;7.83;;;17.50;65.00;;;;;;5062260;28;20203;-50
2023/05/12 04:08:27;;;;;;;10.17;9.13;;;17.60;64.40;;;;;;5062124;28;20594;-50
2023/05/12 04:11:00;;;;;;;8.67;7.77;;;17.50;64.50;;;;;;5062588;28;20810;-50
2023/05/12 04:13:27;;;;;;;9.53;8.63;;;17.60;64.60;;;;;;5072045;28;20438;-50
2023/05/12 04:15:56;;;;;;;9.93;9.13;;;17.60;64.60;;;;;;5061299;28;20434;-52
2023/05/12 04:18:22;;;;;;;9.43;8.43;;;17.60;64.70;;;;;;5061718;28;20936;-51
2023/05/12 04:20:48;;;;;;;9.67;8.77;;;17.60;64.70;;;;;;5061348;28;20541;-53
2023/05/12 04:23:14;;;;;;;10.10;9.10;;;17.60;64.70;;;;;;5043290;28;20543;-50
2023/05/12 04:25:41;;;;;;;8.90;8.10;;;17.60;64.80;;;;;;5061149;28;20196;-52
2023/05/12 04:28:07;;;;;;;10.53;9.47;;;17.60;64.80;;;;;;5058582;28;20492;-50
2023/05/12 04:30:33;;;;;;;11.10;9.90;;;17.70;64.90;;;;;;5059268;28;20434;-52
2023/05/12 04:32:58;;;;;;;11.20;10.10;;;17.60;64.60;;;;;;5060275;28;20842;-51
2023/05/12 04:35:24;;;;;;;11.60;10.50;;;17.60;64.20;;;;;;5070192;28;20265;-49
2023/05/12 04:37:50;;;;;;;10.63;9.50;;;17.60;64.00;;;;;;5061076;28;20195;-50
2023/05/12 04:40:15;;;;;;;11.23;9.93;;;17.60;64.10;;;;;;5066655;28;20275;-49
2023/05/12 04:42:41;;;;;;;10.70;9.70;;;17.60;64.10;;;;;;5064559;28;20670;-49
2023/05/12 04:45:07;;;;;;;11.00;9.87;;;17.60;64.10;;;;;;5064437;28;20188;-51
2023/05/12 04:47:33;;;;;;;11.77;10.57;;;17.60;63.90;;;;;;5063794;28;20199;-49
2023/05/12 04:49:58;;;;;;;14.97;10.70;;;17.70;63.80;;;;;;5064492;28;20446;-51
2023/05/12 04:52:24;;;;;;;11.80;9.97;;;17.60;63.60;;;;;;5070868;28;20196;-51
2023/05/12 04:54:50;;;;;;;9.37;8.53;;;17.60;63.70;;;;;;5053545;28;20309;-50
2023/05/12 04:57:16;;;;;;;11.10;10.03;;;17.70;64.00;;;;;;5058811;28;20442;-52
2023/05/12 04:59:42;;;;;;;10.60;9.60;;;17.70;63.90;;;;;;5069928;28;20220;-50
2023/05/12 05:02:08;;;;;;;12.77;10.10;;;17.70;63.90;;;;;;5067541;28;20219;-50
2023/05/12 05:04:34;;;;;;;10.60;9.13;;;17.70;64.00;;;;;;5072085;28;20495;-51
2023/05/12 05:06:59;;;;;;;10.53;9.40;;;17.70;64.10;;;;;;5069060;28;20936;-53
2023/05/12 05:09:25;;;;;;;11.50;9.37;;;17.70;64.00;;;;;;5069646;28;20263;-50
2023/05/12 05:11:50;;;;;;;9.60;8.80;;;17.70;63.90;;;;;;5061129;28;20558;-50
2023/05/12 05:14:16;;;;;;;10.13;9.13;;;17.60;63.80;;;;;;5065721;28;20204;-50
2023/05/12 05:16:41;;;;;;;10.77;9.57;;;17.60;64.10;;;;;;5067474;28;20197;-51
2023/05/12 05:19:07;;;;;;;11.13;10.13;;;17.60;64.30;;;;;;5070274;28;20227;-53
2023/05/12 05:21:33;;;;;;;10.80;9.80;;;17.70;64.40;;;;;;5068457;28;20223;-54
2023/05/12 05:23:59;;;;;;;10.60;9.27;;;17.70;64.20;;;;;;5065245;28;20198;-51
2023/05/12 05:26:24;;;;;;;14.33;10.03;;;17.70;64.00;;;;;;5062764;28;20446;-50
2023/05/12 05:28:53;;;;;;;11.10;9.57;;;17.70;64.00;;;;;;5061767;28;20235;-49
2023/05/12 05:31:20;;;;;;;10.70;9.70;;;17.70;64.10;;;;;;5057546;28;20601;-51
2023/05/12 05:33:45;;;;;;;10.30;9.30;;;17.80;64.20;;;;;;5066522;28;20842;-49
2023/05/12 05:36:11;;;;;;;11.03;9.47;;;17.80;63.90;;;;;;5060882;28;20445;-53
2023/05/12 05:38:37;;;;;;;11.90;10.07;;;17.90;64.50;;;;;;5042635;28;20628;-51
2023/05/12 05:41:03;;;;;;;9.10;8.17;;;18.00;64.10;;;;;;5068981;28;20192;-51
2023/05/12 05:43:28;;;;;;;11.50;10.50;;;18.10;63.50;;;;;;5064943;28;20200;-50
2023/05/12 05:45:55;;;;;;;10.67;9.73;;;18.20;63.30;;;;;;5064314;28;20189;-55
2023/05/12 05:48:21;;;;;;;10.57;9.57;;;18.20;62.80;;;;;;5058047;28;20193;-50
2023/05/12 05:50:47;;;;;;;11.17;10.03;;;18.30;62.60;;;;;;5058952;28;20450;-49
2023/05/12 05:53:13;;;;;;;11.60;9.57;;;18.30;62.40;;;;;;5055456;28;20199;-49
2023/05/12 05:55:39;;;;;;;11.70;10.60;;;18.40;62.20;;;;;;5058306;28;21036;-51
2023/05/12 05:58:04;;;;;;;10.80;9.80;;;18.50;61.80;;;;;;5064821;28;20218;-50
2023/05/12 06:00:30;;;;;;;10.20;9.17;;;18.50;61.70;;;;;;5068521;28;20227;-49
2023/05/12 06:02:55;;;;;;;10.67;9.67;;;18.40;61.40;;;;;;5059909;28;20234;-50
2023/05/12 06:05:21;;;;;;;11.37;10.27;;;18.40;62.00;;;;;;5067482;28;20670;-50
2023/05/12 06:07:46;;;;;;;10.73;9.73;;;18.50;61.70;;;;;;5069287;28;20188;-52
2023/05/12 06:10:12;;;;;;;10.97;9.83;;;18.60;61.20;;;;;;5063111;28;20203;-50
2023/05/12 06:12:39;;;;;;;10.77;9.77;;;18.60;60.80;;;;;;5068861;28;20192;-50
2023/05/12 06:15:06;;;;;;;9.37;8.57;;;18.60;61.00;;;;;;5066837;28;20582;-51
2023/05/12 06:17:31;;;;;;;8.93;7.93;;;18.60;60.90;;;;;;5069170;28;20949;-50
2023/05/12 06:19:57;;;;;;;10.13;9.23;;;18.70;60.60;;;;;;5048162;28;20535;-49
2023/05/12 06:22:23;;;;;;;11.20;7.67;;;18.60;59.90;;;;;;5067744;28;20196;-49
2023/05/12 06:24:49;;;;;;;9.30;8.60;;;18.70;60.10;;;;;;5061711;28;20199;-51
2023/05/12 06:27:15;;;;;;;9.63;8.73;;;18.70;60.30;;;;;;5061875;28;20454;-48
2023/05/12 06:29:41;;;;;;;9.00;8.20;;;18.80;60.10;;;;;;5068850;28;20206;-49
2023/05/12 06:32:07;;;;;;;9.50;8.67;;;18.80;59.80;;;;;;5068975;28;20917;-50
2023/05/12 06:34:33;;;;;;;9.03;8.13;;;18.80;59.90;;;;;;5062371;28;20639;-54
2023/05/12 06:36:58;;;;;;;9.10;8.30;;;18.80;60.00;;;;;;5066103;28;20548;-50
2023/05/12 06:39:24;;;;;;;9.00;8.20;;;18.90;60.10;;;;;;5064870;28;20594;-50
2023/05/12 06:41:49;;;;;;;6.43;5.90;;;18.90;60.00;;;;;;5064560;28;20184;-51
2023/05/12 06:44:15;;;;;;;8.13;7.37;;;18.90;59.90;;;;;;5066095;28;20203;-53
2023/05/12 06:46:40;;;;;;;9.63;8.83;;;19.00;59.70;;;;;;5062776;28;20192;-54
2023/05/12 06:49:07;;;;;;;7.03;6.43;;;19.00;59.40;;;;;;5056651;28;20302;-50
2023/05/12 06:51:32;;;;;;;8.80;7.97;;;19.10;59.70;;;;;;5068614;28;20546;-49
2023/05/12 06:53:59;;;;;;;8.67;7.97;;;19.10;59.60;;;;;;5059163;28;20477;-48
2023/05/12 06:56:25;;;;;;;8.60;7.80;;;19.10;59.10;;;;;;5064215;28;20223;-50
2023/05/12 06:58:51;;;;;;;8.77;7.97;;;19.20;59.00;;;;;;5066528;28;20796;-54
2023/05/12 07:01:17;;;;;;;9.03;8.23;;;19.20;58.90;;;;;;5061096;28;20445;-54
2023/05/12 07:03:42;;;;;;;9.57;6.40;;;19.20;58.50;;;;;;5065116;28;20632;-50
2023/05/12 07:06:08;;;;;;;7.37;6.57;;;19.20;58.60;;;;;;5063097;28;20195;-51
2023/05/12 07:08:34;;;;;;;8.37;7.57;;;19.20;58.90;;;;;;5065824;28;20714;-50
2023/05/12 07:11:00;;;;;;;7.80;7.20;;;19.20;59.30;;;;;;5070117;28;20651;-49
2023/05/12 07:13:26;;;;;;;7.30;6.60;;;19.20;59.40;;;;;;5074381;28;20563;-49
2023/05/12 07:15:51;;;;;;;6.47;5.90;;;19.30;59.00;;;;;;5070984;28;20526;-50
2023/05/12 07:18:17;;;;;;;7.37;6.77;;;19.30;58.50;;;;;;5074070;28;20249;-50
2023/05/12 07:20:43;;;;;;;6.07;5.53;;;19.40;58.30;;;;;;5073736;28;20587;-49
2023/05/12 07:23:08;;;;;;;6.50;5.90;;;19.40;58.20;;;;;;5074043;28;20196;-49
2023/05/12 07:25:34;;;;;;;7.20;6.63;;;19.40;58.20;;;;;;5073172;28;20199;-50
2023/05/12 07:28:00;;;;;;;6.00;5.50;;;19.50;58.20;;;;;;5073849;28;20214;-50
2023/05/12 07:30:25;;;;;;;6.10;5.60;;;19.60;58.10;;;;;;5073706;28;20180;-49
2023/05/12 07:32:51;;;;;;;6.53;4.90;;;19.70;57.90;;;;;;5073975;28;20196;-49
2023/05/12 07:35:17;;;;;;;5.27;4.77;;;19.00;58.60;;;;;;5074281;28;20204;-51
2023/05/12 07:37:43;;;;;;;5.00;4.60;;;19.10;59.20;;;;;;5064398;28;20448;-52
2023/05/12 07:40:09;;;;;;;5.37;4.97;;;19.30;58.90;;;;;;5072453;28;20252;-51
2023/05/12 07:42:35;;;;;;;5.47;4.97;;;19.60;58.90;;;;;;5070814;28;20251;-49
2023/05/12 07:45:00;;;;;;;5.13;4.73;;;19.80;58.10;;;;;;5074007;28;20422;-49
2023/05/12 07:47:27;;;;;;;5.90;5.50;;;19.90;57.70;;;;;;5073412;28;20206;-50
2023/05/12 07:49:53;;;;;;;5.83;5.43;;;20.00;57.10;;;;;;5073186;28;20203;-53
2023/05/12 07:52:18;;;;;;;6.03;5.53;;;20.00;56.90;;;;;;5071500;28;20433;-49
2023/05/12 07:54:44;;;;;;;5.70;5.30;;;20.10;57.10;;;;;;5073514;28;20231;-48
2023/05/12 07:57:10;;;;;;;6.17;5.70;;;20.20;57.10;;;;;;5073327;28;20612;-49
2023/05/12 07:59:35;;;;;;;7.27;6.67;;;20.30;56.90;;;;;;5073017;28;20235;-49
2023/05/12 08:02:01;;;;;;;6.73;6.23;;;20.20;57.10;;;;;;5066122;28;20263;-51
2023/05/12 08:04:27;;;;;;;7.60;6.90;;;20.30;57.10;;;;;;5047449;28;20207;-50
2023/05/12 08:06:52;;;;;;;6.93;6.40;;;20.30;56.90;;;;;;5060136;28;20442;-49
2023/05/12 08:09:18;;;;;;;6.53;5.93;;;20.30;56.90;;;;;;5062650;28;20196;-50
2023/05/12 08:11:43;;;;;;;6.80;5.30;;;20.30;57.50;;;;;;5069009;28;20702;-49
2023/05/12 08:14:09;;;;;;;5.73;5.23;;;20.30;57.50;;;;;;5067831;28;20329;-49
2023/05/12 08:16:35;;;;;;;5.83;5.27;;;20.30;57.00;;;;;;5058723;28;20188;-50
2023/05/12 08:19:00;;;;;;;6.40;5.50;;;20.30;57.00;;;;;;5068212;28;20663;-49
2023/05/12 08:21:27;;;;;;;5.83;5.37;;;20.40;57.50;;;;;;5061327;28;20301;-49
2023/05/12 08:23:53;;;;;;;5.97;5.37;;;20.50;57.50;;;;;;5067828;28;20188;-50
2023/05/12 08:26:19;;;;;;;5.23;4.73;;;20.60;58.00;;;;;;5067990;28;20582;-50
2023/05/12 08:28:45;;;;;;;5.47;4.67;;;20.80;57.30;;;;;;5062436;28;20440;-49
2023/05/12 08:31:11;;;;;;;4.77;4.37;;;20.90;55.90;;;;;;5059350;28;20461;-47
2023/05/12 08:33:37;;;;;;;4.00;3.70;;;20.80;55.10;;;;;;5059805;28;20203;-52
2023/05/12 08:36:02;;;;;;;3.77;3.47;;;20.80;55.00;;;;;;5064306;28;20195;-52
2023/05/12 08:38:28;;;;;;;4.00;3.70;;;20.80;54.70;;;;;;5067185;28;20183;-50
2023/05/12 08:41:02;;;;;;;4.13;3.70;;;20.80;54.80;;;;;;5065966;28;20834;-49
2023/05/12 08:43:44;;;;;;;3.03;2.80;;;20.90;55.20;;;;;;5061887;28;21573;-48
2023/05/12 08:46:13;;;;;;;2.67;2.50;;;21.00;55.50;;;;;;5057149;28;20538;-51
2023/05/12 08:48:40;;;;;;;2.63;2.43;;;21.00;55.60;;;;;;5057668;28;20443;-48
2023/05/12 08:51:10;;;;;;;2.77;2.50;;;21.10;55.40;;;;;;5063870;28;21012;-50
2023/05/12 08:53:41;;;;;;;2.80;2.60;;;21.10;54.80;;;;;;5067756;28;20846;-47
2023/05/12 08:56:09;;;;;;;3.47;3.27;;;21.20;54.80;;;;;;5059733;28;20446;-49
2023/05/12 08:58:36;;;;;;;2.80;2.60;;;21.30;54.50;;;;;;5068809;28;20439;-51
2023/05/12 09:01:06;;;;;;;4.87;3.50;;;21.30;54.80;;;;;;5070991;28;20799;-49
2023/05/12 09:03:32;;;;;;;3.70;3.30;;;21.40;54.70;;;;;;5065939;28;20478;-50
2023/05/12 09:05:59;;;;;;;3.50;3.30;;;21.40;55.00;;;;;;5054928;28;20501;-53
2023/05/12 09:08:27;;;;;;;3.90;3.70;;;21.50;55.30;;;;;;5060351;28;20528;-49
2023/05/12 09:10:56;;;;;;;4.60;4.20;;;21.60;55.50;;;;;;5061682;28;20442;-48
2023/05/12 09:13:59;;;;;;;3.40;3.10;;;21.70;54.70;;;;;;5064709;28;20449;-49
2023/05/12 09:16:28;;;;;;;3.00;2.80;;;22.10;54.80;;;;;;5068076;28;20439;-51
2023/05/12 09:18:58;;;;;;;2.50;2.30;;;22.40;54.20;;;;;;5063917;28;20491;-52
2023/05/12 09:21:25;;;;;;;2.57;2.37;;;22.60;53.30;;;;;;5069293;28;20453;-48
2023/05/12 09:23:57;;;;;;;2.90;2.70;;;22.80;52.80;;;;;;5065080;28;20442;-53
2023/05/12 09:26:24;;;;;;;2.60;2.40;;;23.00;51.30;;;;;;5061976;28;20642;-48
2023/05/12 09:29:08;;;;;;;2.90;2.70;;;23.20;50.40;;;;;;5066169;28;20521;-48
2023/05/12 09:31:33;;;;;;;3.13;2.93;;;23.10;49.50;;;;;;5069904;28;20487;-50
2023/05/12 09:34:01;;;;;;;3.03;2.20;;;23.00;50.60;;;;;;5068109;28;20989;-51
2023/05/12 09:36:27;;;;;;;2.30;2.10;;;23.10;49.80;;;;;;5063745;28;20667;-48
2023/05/12 09:39:03;;;;;;;1.63;1.53;;;23.10;49.90;;;;;;5066181;28;20439;-48
2023/05/12 09:41:38;;;;;;;2.70;2.50;;;23.20;50.40;;;;;;5061654;28;20298;-48
2023/05/12 09:44:05;;;;;;;3.10;2.90;;;23.20;50.00;;;;;;5055069;28;20442;-50
2023/05/12 09:46:31;;;;;;;2.80;2.60;;;23.10;49.50;;;;;;5058567;28;20776;-49
2023/05/12 09:48:57;;;;;;;2.70;2.50;;;23.10;50.20;;;;;;5062612;28;20453;-49
2023/05/12 09:51:23;;;;;;;3.67;3.37;;;23.00;51.00;;;;;;5065549;28;20203;-48
2023/05/12 09:53:49;;;;;;;3.80;3.50;;;22.90;51.40;;;;;;5069842;28;20541;-52
2023/05/12 09:56:16;;;;;;;4.37;3.97;;;22.90;51.50;;;;;;5061765;28;20585;-48
2023/05/12 09:58:43;;;;;;;5.23;4.73;;;22.70;52.20;;;;;;5070011;28;20223;-47
2023/05/12 10:01:12;;;;;;;7.07;4.30;;;22.60;52.70;;;;;;5057826;28;20451;-52
2023/05/12 10:03:41;;;;;;;6.23;4.93;;;22.60;52.30;;;;;;5064802;28;20452;-49
2023/05/12 10:06:10;;;;;;;5.30;3.90;;;22.50;52.10;;;;;;5065756;28;20521;-48
2023/05/12 10:08:58;;;;;;;6.47;4.33;;;22.30;52.60;;;;;;5069084;28;21277;-48
2023/05/12 10:11:24;;;;;;;4.33;4.03;;;22.10;53.40;;;;;;5069247;28;20991;-48
2023/05/12 10:13:51;;;;;;;4.67;3.37;;;22.00;53.90;;;;;;5069433;28;20525;-48
2023/05/12 10:16:17;;;;;;;5.40;3.47;;;22.10;53.70;;;;;;5067224;28;20529;-50
2023/05/12 10:18:44;;;;;;;3.70;3.30;;;22.10;53.70;;;;;;5069305;28;20449;-48
2023/05/12 10:21:11;;;;;;;4.30;3.37;;;22.00;54.00;;;;;;5063932;28;20446;-49
2023/05/12 10:23:40;;;;;;;3.43;3.23;;;22.10;54.10;;;;;;5069646;28;20446;-49
2023/05/12 10:26:06;;;;;;;3.90;3.60;;;22.00;54.10;;;;;;5059865;28;20448;-48
2023/05/12 10:28:31;;;;;;;3.70;3.40;;;22.00;54.20;;;;;;5059672;28;20457;-48
2023/05/12 10:30:57;;;;;;;3.80;3.50;;;22.00;53.90;;;;;;5065244;28;20442;-48
2023/05/12 10:33:24;;;;;;;2.60;2.40;;;22.00;54.20;;;;;;5058942;28;20199;-48
2023/05/12 10:35:51;;;;;;;3.57;3.37;;;22.00;54.40;;;;;;5062975;28;20450;-49
2023/05/12 10:38:18;;;;;;;5.87;3.93;;;22.00;54.40;;;;;;5065851;28;20503;-47
2023/05/12 10:40:59;;;;;;;3.90;3.23;;;22.10;54.40;;;;;;5062397;28;20528;-49
2023/05/12 10:43:44;;;;;;;3.47;2.97;;;22.30;53.80;;;;;;5058005;28;20443;-48
2023/05/12 10:46:16;;;;;;;3.30;2.80;;;22.20;53.10;;;;;;5065418;28;20461;-48
2023/05/12 10:49:03;;;;;;;3.87;3.30;;;22.40;53.40;;;;;;5062802;28;20446;-49
2023/05/12 10:51:47;;;;;;;2.63;2.43;;;22.30;53.30;;;;;;5068165;28;20457;-48
2023/05/12 10:54:19;;;;;;;3.23;2.40;;;22.40;53.30;;;;;;5061628;28;20551;-49
2023/05/12 10:56:45;;;;;;;2.30;2.10;;;22.40;52.70;;;;;;5059432;28;20447;-47
2023/05/12 10:59:12;;;;;;;3.43;2.47;;;22.30;52.10;;;;;;5067224;28;20476;-48
2023/05/12 11:01:41;;;;;;;4.73;2.90;;;22.30;53.00;;;;;;5059494;28;20744;-48
2023/05/12 11:04:15;;;;;;;4.00;3.00;;;22.40;52.50;;;;;;5064074;28;20844;-50
2023/05/12 11:06:42;;;;;;;3.57;2.53;;;22.50;52.30;;;;;;5067415;28;20442;-48
2023/05/12 11:09:09;;;;;;;2.90;2.70;;;22.40;51.30;;;;;;5064657;28;20474;-48
2023/05/12 11:11:35;;;;;;;2.60;2.40;;;22.30;51.90;;;;;;5066576;28;20442;-51
2023/05/12 11:14:01;;;;;;;2.57;2.37;;;22.20;52.90;;;;;;5066990;28;20460;-48
2023/05/12 11:16:27;;;;;;;2.60;2.40;;;22.10;52.50;;;;;;5059447;28;20442;-48
2023/05/12 11:19:05;;;;;;;3.17;2.70;;;22.20;53.20;;;;;;5065658;28;20461;-52
2023/05/12 11:21:32;;;;;;;3.20;2.50;;;22.20;52.00;;;;;;5068297;28;20571;-48
2023/05/12 11:23:59;;;;;;;4.80;2.50;;;22.10;52.80;;;;;;5065370;28;20518;-49
2023/05/12 11:26:26;;;;;;;2.40;2.30;;;22.20;52.60;;;;;;5065236;28;20438;-48
2023/05/12 11:28:51;;;;;;;2.60;2.40;;;22.20;53.00;;;;;;5059481;28;20821;-47
2023/05/12 11:31:19;;;;;;;2.40;2.20;;;22.40;52.60;;;;;;5062264;28;20442;-48
2023/05/12 11:33:45;;;;;;;2.90;2.67;;;22.40;52.70;;;;;;5059871;28;20197;-48
2023/05/12 11:36:10;;;;;;;3.00;2.10;;;22.50;53.00;;;;;;5066365;28;20551;-48
2023/05/12 11:38:36;;;;;;;2.37;2.20;;;22.70;52.60;;;;;;5062101;28;20948;-50
2023/05/12 11:41:02;;;;;;;1.60;1.50;;;22.80;52.30;;;;;;5057223;28;20252;-52
2023/05/12 11:43:28;;;;;;;1.70;1.37;;;23.00;51.50;;;;;;5062401;28;20204;-48
2023/05/12 11:45:54;;;;;;;2.23;2.00;;;23.10;50.50;;;;;;5060544;28;20192;-48
2023/05/12 11:48:21;;;;;;;1.37;1.27;;;23.10;50.40;;;;;;5070279;28;21342;-50
2023/05/12 11:50:49;;;;;;;2.77;1.70;;;22.70;49.80;;;;;;5067524;28;20648;-48
2023/05/12 11:53:17;;;;;;;2.13;1.30;;;22.40;50.20;;;;;;5068578;28;20486;-48
2023/05/12 11:55:51;;;;;;;1.67;1.10;;;22.40;49.10;;;;;;5060571;28;21028;-47
2023/05/12 11:58:23;;;;;;;1.10;1.10;;;22.50;48.70;;;;;;5072988;28;20586;-48
2023/05/12 12:00:49;;;;;;;1.03;0.90;;;22.50;48.30;;;;;;5065765;28;20497;-51
2023/05/12 12:03:15;;;;;;;7.13;1.80;;;22.30;47.10;;;;;;5067043;28;20456;-51
2023/05/12 12:05:44;;;;;;;1.30;1.20;;;22.10;48.40;;;;;;5065215;28;20451;-50
2023/05/12 12:08:14;;;;;;;1.40;1.30;;;22.00;48.50;;;;;;5073383;28;20929;-49
2023/05/12 12:10:45;;;;;;;1.60;1.50;;;21.60;48.80;;;;;;5072033;28;20583;-50
2023/05/12 12:13:11;;;;;;;1.80;1.70;;;21.40;49.80;;;;;;5067054;28;20438;-48
2023/05/12 12:15:37;;;;;;;1.80;1.70;;;21.70;49.60;;;;;;5072478;28;20828;-50
2023/05/12 12:18:03;;;;;;;1.97;1.87;;;21.70;48.30;;;;;;5069062;28;20457;-48
2023/05/12 12:20:29;;;;;;;1.70;1.60;;;21.80;48.00;;;;;;5064194;28;20228;-48
2023/05/12 12:22:55;;;;;;;1.93;1.83;;;21.90;48.40;;;;;;5065101;28;20215;-50
2023/05/12 12:25:21;;;;;;;2.40;2.20;;;21.90;48.30;;;;;;5066637;28;20925;-48
2023/05/12 12:27:47;;;;;;;2.27;1.83;;;22.00;48.60;;;;;;5068714;28;20325;-48
2023/05/12 12:30:14;;;;;;;2.27;1.97;;;22.00;48.50;;;;;;5062631;28;20438;-50
2023/05/12 12:32:40;;;;;;;4.30;1.93;;;21.90;48.70;;;;;;5066121;28;20450;-49
2023/05/12 12:35:06;;;;;;;2.53;2.33;;;21.50;49.70;;;;;;5068252;28;20442;-49
2023/05/12 12:37:32;;;;;;;3.00;2.80;;;21.90;50.00;;;;;;5062611;28;20245;-49
2023/05/12 12:39:58;;;;;;;4.10;3.80;;;22.00;51.40;;;;;;5064849;28;20487;-49
2023/05/12 12:42:24;;;;;;;4.97;4.50;;;22.00;52.60;;;;;;5056684;28;20197;-47
2023/05/12 12:44:50;;;;;;;4.20;3.90;;;22.00;52.00;;;;;;5071736;28;20529;-49